Time;durP1;ratioP1;P1;durP2;ratioP2;P2;SDS_P1;SDS_P2;PMS_P1;PMS_P2;Temp;Humidity;BMP_temperature;BMP_pressure;BME280_temperature;BME280_humidity;BME280_pressure;Samples;Min_cycle;Max_cycle;Signal;HPM_P1;HPM_P2
2021/09/16 00:10:38;;;;;;;31.83;22.33;;;17.60;99.90;;;;;;5050101;28;20040;-47
2021/09/16 00:13:04;;;;;;;34.35;22.95;;;17.60;99.90;;;;;;5049716;28;20033;-47
2021/09/16 00:15:29;;;;;;;32.53;23.88;;;17.60;99.90;;;;;;5049953;28;20220;-47
2021/09/16 00:17:55;;;;;;;35.15;23.73;;;17.50;99.90;;;;;;5049441;28;20033;-47
2021/09/16 00:20:20;;;;;;;37.60;23.02;;;17.50;99.90;;;;;;5049751;28;20052;-47
2021/09/16 00:22:46;;;;;;;33.85;23.48;;;17.50;99.90;;;;;;5049748;28;20455;-48
2021/09/16 00:25:11;;;;;;;38.53;24.88;;;17.50;99.90;;;;;;5049805;28;20025;-47
2021/09/16 00:27:37;;;;;;;32.58;21.60;;;17.50;99.90;;;;;;5049097;28;20052;-47
2021/09/16 00:30:04;;;;;;;34.10;24.63;;;17.40;99.90;;;;;;5048156;28;20016;-48
2021/09/16 00:32:29;;;;;;;34.45;23.42;;;17.40;99.90;;;;;;5049626;28;20033;-48
2021/09/16 00:34:55;;;;;;;35.97;24.00;;;17.40;99.90;;;;;;5049423;28;20036;-48
2021/09/16 00:37:20;;;;;;;39.78;23.88;;;17.40;99.90;;;;;;5048635;28;20033;-48
2021/09/16 00:39:46;;;;;;;33.13;21.80;;;17.30;99.90;;;;;;5049292;28;20036;-48
2021/09/16 00:42:16;;;;;;;26.83;19.30;;;17.40;99.90;;;;;;5049032;28;20198;-46
2021/09/16 00:44:41;;;;;;;35.27;20.43;;;17.30;99.90;;;;;;5049289;28;20086;-47
2021/09/16 00:47:07;;;;;;;34.85;20.23;;;17.30;99.90;;;;;;5048617;28;20024;-47
2021/09/16 00:49:32;;;;;;;27.02;17.65;;;17.30;99.90;;;;;;5049227;28;20552;-48
2021/09/16 00:51:59;;;;;;;29.80;18.63;;;17.20;99.90;;;;;;5048887;28;20560;-46
2021/09/16 00:54:26;;;;;;;23.95;15.88;;;17.30;99.90;;;;;;5048961;28;20021;-47
2021/09/16 00:56:53;;;;;;;24.90;17.38;;;17.20;99.90;;;;;;5048713;28;20098;-47
2021/09/16 00:59:21;;;;;;;25.05;18.40;;;17.20;99.90;;;;;;5049067;28;20021;-47
2021/09/16 01:01:47;;;;;;;28.75;18.70;;;17.20;99.90;;;;;;5049313;28;20486;-48
2021/09/16 01:04:13;;;;;;;31.23;18.70;;;17.20;99.90;;;;;;5048910;28;20093;-47
2021/09/16 01:06:38;;;;;;;26.27;17.63;;;17.20;99.90;;;;;;5048166;28;20067;-48
2021/09/16 01:09:04;;;;;;;27.35;18.23;;;17.20;99.90;;;;;;5048651;28;20402;-47
2021/09/16 01:11:29;;;;;;;21.20;15.15;;;17.20;99.90;;;;;;5048685;28;20513;-47
2021/09/16 01:13:56;;;;;;;24.23;15.57;;;17.20;99.90;;;;;;5048509;28;20052;-49
2021/09/16 01:16:22;;;;;;;23.25;15.32;;;17.20;99.90;;;;;;5048333;28;20017;-47
2021/09/16 01:18:47;;;;;;;24.10;15.23;;;17.20;99.90;;;;;;5048016;28;20040;-47
2021/09/16 01:21:13;;;;;;;23.27;14.02;;;17.10;99.90;;;;;;5048462;28;20058;-47
2021/09/16 01:23:39;;;;;;;21.38;14.27;;;17.10;99.90;;;;;;5048624;28;20029;-47
2021/09/16 01:26:05;;;;;;;20.38;14.52;;;17.10;99.90;;;;;;5048263;28;20032;-50
2021/09/16 01:28:31;;;;;;;21.45;13.07;;;17.10;99.90;;;;;;5048023;28;20105;-50
2021/09/16 01:30:56;;;;;;;21.95;14.20;;;17.10;99.90;;;;;;5048367;28;20497;-48
2021/09/16 01:33:22;;;;;;;18.85;12.00;;;17.10;99.90;;;;;;5048425;28;20025;-47
2021/09/16 01:35:47;;;;;;;17.88;13.02;;;17.10;99.90;;;;;;5048316;28;20029;-50
2021/09/16 01:38:13;;;;;;;20.98;12.50;;;17.00;99.90;;;;;;5046550;28;20023;-47
2021/09/16 01:40:40;;;;;;;22.98;13.23;;;17.00;99.90;;;;;;5048317;28;20045;-47
2021/09/16 01:43:05;;;;;;;14.55;10.65;;;17.00;99.90;;;;;;5048521;28;20725;-47
2021/09/16 01:45:31;;;;;;;13.32;10.60;;;17.00;99.90;;;;;;5048398;28;20096;-48
2021/09/16 01:47:56;;;;;;;17.33;10.02;;;16.90;99.90;;;;;;5047636;28;20112;-47
2021/09/16 01:50:24;;;;;;;14.23;9.52;;;17.00;99.90;;;;;;5048422;28;20425;-50
2021/09/16 02:26:30;;;;;;;9.57;6.65;;;16.80;99.90;;;;;;5051205;28;20020;-47
2021/09/16 02:28:55;;;;;;;8.13;6.50;;;16.80;99.90;;;;;;5052186;28;20017;-48
2021/09/16 02:31:21;;;;;;;9.65;6.82;;;16.70;99.90;;;;;;5051892;28;20375;-48
2021/09/16 02:33:46;;;;;;;11.43;7.68;;;16.70;99.90;;;;;;5051785;28;20057;-47
2021/09/16 02:36:12;;;;;;;13.65;7.65;;;16.70;99.90;;;;;;5051395;28;20036;-48
2021/09/16 02:38:37;;;;;;;9.27;6.32;;;16.70;99.90;;;;;;5051141;28;20028;-47
2021/09/16 02:41:03;;;;;;;9.70;6.63;;;16.70;99.90;;;;;;5051508;28;20037;-47
2021/09/16 02:43:28;;;;;;;11.68;6.90;;;16.70;99.90;;;;;;5051646;28;20033;-48
2021/09/16 02:45:54;;;;;;;17.10;6.70;;;16.70;99.90;;;;;;5051422;28;20498;-47
2021/09/16 02:48:19;;;;;;;16.85;7.22;;;16.70;99.90;;;;;;5050927;28;20025;-48
2021/09/16 02:50:45;;;;;;;9.35;6.80;;;16.70;99.90;;;;;;5051351;28;20068;-47
2021/09/16 02:53:10;;;;;;;9.93;6.85;;;16.60;99.90;;;;;;5051389;28;20114;-50
2021/09/16 02:55:36;;;;;;;7.63;5.95;;;16.70;99.90;;;;;;5042885;28;20363;-48
2021/09/16 02:58:02;;;;;;;11.43;6.30;;;16.70;99.90;;;;;;5039748;28;20029;-47
2021/09/16 03:00:27;;;;;;;9.52;5.20;;;16.60;99.90;;;;;;5041873;28;20025;-48
2021/09/16 03:02:53;;;;;;;16.48;6.50;;;16.60;99.90;;;;;;5039922;28;20364;-48
2021/09/16 03:05:18;;;;;;;11.85;4.90;;;16.50;99.90;;;;;;5039917;28;20143;-47
2021/09/16 03:07:44;;;;;;;9.57;4.80;;;16.50;99.90;;;;;;5039576;28;20032;-48
2021/09/16 03:10:11;;;;;;;7.55;4.05;;;16.50;99.90;;;;;;5040122;28;20029;-47
2021/09/16 03:12:36;;;;;;;9.13;4.50;;;16.50;99.90;;;;;;5040024;28;20035;-50
2021/09/16 03:15:02;;;;;;;8.90;3.78;;;16.50;99.90;;;;;;5041445;28;20025;-50
2021/09/16 03:17:28;;;;;;;4.80;3.00;;;16.40;99.90;;;;;;5038882;28;20079;-49
2021/09/16 03:19:53;;;;;;;6.78;3.08;;;16.40;99.90;;;;;;5039552;28;20104;-50
2021/09/16 03:22:19;;;;;;;6.65;3.10;;;16.40;99.90;;;;;;5040765;28;20053;-49
2021/09/16 03:24:44;;;;;;;5.18;3.17;;;16.40;99.90;;;;;;5039460;28;20021;-47
2021/09/16 03:27:10;;;;;;;6.50;3.08;;;16.40;99.90;;;;;;5040412;28;20021;-48
2021/09/16 03:29:35;;;;;;;4.35;3.13;;;16.40;99.90;;;;;;5040120;28;20033;-47
2021/09/16 03:32:01;;;;;;;5.80;2.67;;;16.40;99.90;;;;;;5039464;28;20087;-47
2021/09/16 03:34:26;;;;;;;6.72;2.80;;;16.40;99.90;;;;;;5040987;28;20020;-48
2021/09/16 03:36:52;;;;;;;5.38;2.67;;;16.40;99.90;;;;;;5038816;28;20029;-47
2021/09/16 03:39:17;;;;;;;4.18;2.33;;;16.30;99.90;;;;;;5040055;28;20403;-52
2021/09/16 03:41:43;;;;;;;5.57;2.53;;;16.40;99.90;;;;;;5037229;28;20049;-48
2021/09/16 03:44:08;;;;;;;7.93;2.83;;;16.30;99.90;;;;;;5038416;28;20033;-48
2021/09/16 03:46:34;;;;;;;8.30;2.28;;;16.20;99.90;;;;;;5038602;28;20108;-47
2021/09/16 03:48:59;;;;;;;7.65;3.17;;;16.20;99.90;;;;;;5039409;28;20055;-47
2021/09/16 03:51:25;;;;;;;5.00;2.20;;;16.20;99.90;;;;;;5040255;28;20017;-47
2021/09/16 03:53:50;;;;;;;3.33;1.70;;;16.10;99.90;;;;;;5038910;28;20057;-47
2021/09/16 03:56:15;;;;;;;6.75;2.10;;;16.10;99.90;;;;;;5038317;28;20047;-47
2021/09/16 03:58:41;;;;;;;4.07;1.55;;;16.10;99.90;;;;;;5032259;28;20128;-47
2021/09/16 04:01:08;;;;;;;6.65;1.70;;;16.00;99.90;;;;;;5030202;28;20479;-47
2021/09/16 04:03:33;;;;;;;4.97;1.35;;;16.00;99.90;;;;;;5030120;28;20077;-47
2021/09/16 04:05:59;;;;;;;9.82;1.52;;;15.90;99.90;;;;;;5030324;28;20632;-47
2021/09/16 04:08:24;;;;;;;5.05;1.40;;;15.90;99.90;;;;;;5036624;28;20031;-49
2021/09/16 04:10:50;;;;;;;2.42;1.45;;;15.90;99.90;;;;;;5039053;28;20359;-48
2021/09/16 04:13:15;;;;;;;5.30;1.73;;;15.90;99.90;;;;;;5048851;28;20037;-49
2021/09/16 04:15:42;;;;;;;6.25;1.63;;;15.80;99.90;;;;;;5048150;28;20449;-51
2021/09/16 04:18:08;;;;;;;4.88;1.60;;;15.80;99.90;;;;;;5048189;28;20525;-47
2021/09/16 04:20:33;;;;;;;5.43;1.77;;;15.80;99.90;;;;;;5050015;28;20100;-49
2021/09/16 04:22:59;;;;;;;7.60;1.50;;;15.70;99.90;;;;;;5048796;28;20029;-48
2021/09/16 04:25:24;;;;;;;2.00;1.27;;;15.70;99.90;;;;;;5045941;28;20078;-48
2021/09/16 04:27:49;;;;;;;4.55;1.30;;;15.60;99.90;;;;;;5049203;28;20037;-49
2021/09/16 04:30:15;;;;;;;3.78;1.40;;;15.60;99.90;;;;;;5049704;28;20037;-49
2021/09/16 04:32:41;;;;;;;3.28;1.30;;;15.60;99.90;;;;;;5049334;28;20055;-47
2021/09/16 04:35:09;;;;;;;3.08;1.50;;;15.60;99.90;;;;;;5049469;28;20325;-47
2021/09/16 04:37:34;;;;;;;2.50;1.15;;;15.50;99.90;;;;;;5048472;28;20513;-49
2021/09/16 04:40:00;;;;;;;9.55;1.58;;;15.50;99.90;;;;;;5049173;28;20108;-47
2021/09/16 04:42:25;;;;;;;4.10;1.48;;;15.50;99.90;;;;;;5049043;28;20029;-47
2021/09/16 04:44:51;;;;;;;7.40;1.70;;;15.40;99.90;;;;;;5049241;28;20111;-48
2021/09/16 04:47:17;;;;;;;4.50;1.40;;;15.40;99.90;;;;;;5048483;28;20029;-48
2021/09/16 04:49:42;;;;;;;5.70;1.60;;;15.40;99.90;;;;;;5049296;28;20112;-47
2021/09/16 04:52:08;;;;;;;4.13;1.77;;;15.30;99.90;;;;;;5049291;28;20025;-48
2021/09/16 04:54:33;;;;;;;4.75;1.63;;;15.30;99.90;;;;;;5048978;28;20040;-48
2021/09/16 04:56:59;;;;;;;5.70;1.65;;;15.30;99.90;;;;;;5048346;28;20104;-48
2021/09/16 04:59:24;;;;;;;9.95;1.92;;;15.30;99.90;;;;;;5048846;28;20394;-48
2021/09/16 05:01:50;;;;;;;3.70;1.33;;;15.20;99.90;;;;;;5049159;28;20025;-48
2021/09/16 05:04:15;;;;;;;3.28;1.35;;;15.20;99.90;;;;;;5048709;28;20368;-48
2021/09/16 05:06:41;;;;;;;5.03;1.73;;;15.30;99.90;;;;;;5048216;28;20033;-48
2021/09/16 05:09:06;;;;;;;3.80;1.65;;;15.30;99.90;;;;;;5047469;28;20025;-47
2021/09/16 05:11:39;;;;;;;2.75;1.80;;;15.20;99.90;;;;;;5048592;28;20199;-48
2021/09/16 05:14:05;;;;;;;2.72;1.60;;;15.20;99.90;;;;;;5049063;28;20025;-51
2021/09/16 05:16:30;;;;;;;2.30;1.40;;;15.20;99.90;;;;;;5047546;28;20100;-48
2021/09/16 05:18:56;;;;;;;5.35;2.00;;;15.30;99.90;;;;;;5048537;28;20032;-48
2021/09/16 05:21:22;;;;;;;5.85;2.25;;;15.30;99.90;;;;;;5048809;28;20100;-50
2021/09/16 05:23:47;;;;;;;4.15;1.60;;;15.30;99.90;;;;;;5048825;28;20116;-51
2021/09/16 05:26:13;;;;;;;3.65;1.90;;;15.30;99.90;;;;;;5048280;28;20167;-48
2021/09/16 05:28:39;;;;;;;5.57;1.88;;;15.30;99.90;;;;;;5045862;28;20430;-48
2021/09/16 05:31:04;;;;;;;6.38;1.65;;;15.30;99.90;;;;;;5048318;28;20102;-48
2021/09/16 05:33:30;;;;;;;3.13;1.60;;;15.30;99.90;;;;;;5048421;28;20047;-49
2021/09/16 05:35:57;;;;;;;7.97;2.75;;;15.30;99.90;;;;;;5048524;28;20047;-48
2021/09/16 05:38:22;;;;;;;7.20;1.42;;;15.30;99.90;;;;;;5047738;28;20017;-47
2021/09/16 05:40:48;;;;;;;6.00;1.70;;;15.40;99.90;;;;;;5048324;28;20103;-48
2021/09/16 05:43:13;;;;;;;3.95;1.45;;;15.40;99.90;;;;;;5048427;28;20032;-48
2021/09/16 05:45:39;;;;;;;2.28;1.10;;;15.40;99.90;;;;;;5048295;28;20105;-47
2021/09/16 05:48:05;;;;;;;9.48;2.35;;;15.50;99.90;;;;;;5047643;28;20033;-48
2021/09/16 05:50:31;;;;;;;6.15;1.80;;;15.60;99.90;;;;;;5048269;28;20025;-48
2021/09/16 05:52:56;;;;;;;7.30;1.75;;;15.60;99.90;;;;;;5048543;28;20104;-47
2021/09/16 05:55:22;;;;;;;6.85;1.40;;;15.70;99.90;;;;;;5048288;28;20087;-48
2021/09/16 05:57:48;;;;;;;6.85;1.95;;;15.70;99.90;;;;;;5047649;28;20041;-47
2021/09/16 06:00:14;;;;;;;6.40;1.58;;;15.70;99.90;;;;;;5048189;28;20049;-49
2021/09/16 06:02:39;;;;;;;6.10;1.50;;;15.80;99.90;;;;;;5048413;28;20029;-49
2021/09/16 06:05:05;;;;;;;5.57;1.63;;;15.90;99.90;;;;;;5048242;28;20075;-48
2021/09/16 06:07:32;;;;;;;3.08;2.00;;;15.90;99.90;;;;;;5047593;28;20066;-49
2021/09/16 06:09:58;;;;;;;3.20;1.30;;;16.00;99.90;;;;;;5048170;28;20435;-48
2021/09/16 06:12:26;;;;;;;7.13;1.60;;;16.00;99.90;;;;;;5047873;28;20112;-48
2021/09/16 06:14:52;;;;;;;4.63;1.55;;;16.00;99.90;;;;;;5048001;28;20263;-48
2021/09/16 06:17:17;;;;;;;4.85;1.38;;;16.00;99.90;;;;;;5047410;28;20028;-47
2021/09/16 06:19:43;;;;;;;6.88;2.88;;;16.10;99.90;;;;;;5047909;28;20026;-49
2021/09/16 06:22:09;;;;;;;3.50;1.80;;;16.00;99.90;;;;;;5047936;28;20028;-48
2021/09/16 06:24:34;;;;;;;3.40;1.30;;;16.10;99.90;;;;;;5047896;28;20029;-47
2021/09/16 06:27:01;;;;;;;4.85;1.00;;;16.10;99.90;;;;;;5047565;28;20128;-48
2021/09/16 06:29:26;;;;;;;4.20;1.23;;;16.10;99.90;;;;;;5048590;28;20109;-48
2021/09/16 06:31:52;;;;;;;4.28;1.13;;;16.20;99.90;;;;;;5048273;28;20061;-49
2021/09/16 06:34:18;;;;;;;1.75;0.82;;;16.30;99.90;;;;;;5048039;28;20090;-47
2021/09/16 06:36:43;;;;;;;5.30;1.23;;;16.30;99.90;;;;;;5047281;28;20033;-48
2021/09/16 06:39:09;;;;;;;2.58;0.80;;;16.40;99.90;;;;;;5049035;28;20025;-48
2021/09/16 06:41:34;;;;;;;3.55;1.00;;;16.40;99.90;;;;;;5051574;28;20029;-49
2021/09/16 06:44:00;;;;;;;4.03;1.30;;;16.50;99.90;;;;;;5051492;28;20059;-48
2021/09/16 06:46:26;;;;;;;2.67;1.00;;;16.60;99.90;;;;;;5051060;28;20057;-50
2021/09/16 06:48:51;;;;;;;2.97;0.80;;;16.60;99.90;;;;;;5051500;28;20153;-49
2021/09/16 06:51:17;;;;;;;3.13;1.23;;;16.70;99.90;;;;;;5051279;28;20083;-48
2021/09/16 06:53:42;;;;;;;3.08;1.40;;;16.80;99.90;;;;;;5051367;28;20100;-49
2021/09/16 06:56:08;;;;;;;3.38;1.08;;;16.80;99.90;;;;;;5051168;28;20116;-49
2021/09/16 06:58:33;;;;;;;2.40;1.20;;;16.80;99.90;;;;;;5050619;28;20029;-48
2021/09/16 07:00:59;;;;;;;2.95;1.05;;;16.70;99.90;;;;;;5051069;28;20078;-48
2021/09/16 07:03:24;;;;;;;6.78;1.33;;;16.80;99.90;;;;;;5051253;28;20455;-49
2021/09/16 07:05:50;;;;;;;6.07;1.27;;;16.90;99.90;;;;;;5051149;28;20028;-48
2021/09/16 07:08:16;;;;;;;2.53;1.10;;;17.00;99.90;;;;;;5049255;28;20033;-48
2021/09/16 07:10:41;;;;;;;6.05;1.80;;;17.10;99.90;;;;;;5051071;28;20056;-49
2021/09/16 07:13:07;;;;;;;2.67;1.00;;;17.10;99.90;;;;;;5050909;28;20029;-47
2021/09/16 07:15:33;;;;;;;2.90;0.95;;;17.10;99.90;;;;;;5051462;28;20473;-49
2021/09/16 07:17:59;;;;;;;6.85;1.30;;;17.20;99.90;;;;;;5049061;28;20120;-50
2021/09/16 07:20:24;;;;;;;2.35;1.17;;;17.10;99.90;;;;;;5049787;28;20083;-48
2021/09/16 07:22:50;;;;;;;3.50;1.40;;;17.20;99.90;;;;;;5050781;28;20048;-48
2021/09/16 07:25:16;;;;;;;6.32;1.70;;;17.30;99.90;;;;;;5050779;28;20120;-48
2021/09/16 07:27:41;;;;;;;11.25;1.73;;;17.20;99.90;;;;;;5049950;28;20032;-51
2021/09/16 07:30:07;;;;;;;4.25;1.30;;;17.30;99.90;;;;;;5050617;28;20029;-50
2021/09/16 07:32:33;;;;;;;6.47;1.17;;;17.20;99.90;;;;;;5050491;28;20032;-48
2021/09/16 07:34:59;;;;;;;6.32;1.27;;;17.30;99.90;;;;;;5050541;28;20384;-51
2021/09/16 07:37:25;;;;;;;3.30;1.40;;;17.40;99.90;;;;;;5050054;28;20489;-51
2021/09/16 07:39:51;;;;;;;5.90;1.20;;;17.60;99.90;;;;;;5050718;28;20025;-51
2021/09/16 07:42:17;;;;;;;3.90;1.27;;;17.60;99.90;;;;;;5049174;28;20155;-48
2021/09/16 07:44:42;;;;;;;3.25;1.25;;;17.70;99.90;;;;;;5047321;28;20030;-47
2021/09/16 07:47:08;;;;;;;4.45;1.30;;;17.80;99.90;;;;;;5046718;28;20021;-48
2021/09/16 07:49:33;;;;;;;4.90;1.90;;;17.90;99.90;;;;;;5050481;28;20032;-48
2021/09/16 07:51:59;;;;;;;3.90;1.17;;;17.80;99.90;;;;;;5048296;28;20490;-48
2021/09/16 07:54:25;;;;;;;5.35;1.77;;;17.90;99.90;;;;;;5050113;28;20025;-49
2021/09/16 07:56:50;;;;;;;2.67;1.05;;;17.80;99.90;;;;;;5049724;28;20027;-48
2021/09/16 07:59:16;;;;;;;5.95;1.42;;;17.90;99.90;;;;;;5050184;28;20052;-48
2021/09/16 08:01:41;;;;;;;5.40;1.33;;;18.00;99.90;;;;;;5049950;28;20033;-48
2021/09/16 08:04:07;;;;;;;5.68;1.52;;;18.20;99.90;;;;;;5050047;28;20083;-48
2021/09/16 08:06:33;;;;;;;4.78;1.70;;;18.50;99.90;;;;;;5049200;28;20029;-48
2021/09/16 08:08:58;;;;;;;7.53;1.88;;;18.40;99.90;;;;;;5049777;28;20057;-48
2021/09/16 08:11:24;;;;;;;4.55;1.65;;;18.80;99.90;;;;;;5049562;28;20027;-48
2021/09/16 08:13:51;;;;;;;8.07;1.80;;;18.80;99.90;;;;;;5049569;28;20029;-48
2021/09/16 08:16:18;;;;;;;4.22;1.33;;;18.90;99.90;;;;;;5029827;28;20048;-48
2021/09/16 08:18:44;;;;;;;9.77;1.80;;;18.60;99.90;;;;;;5035242;28;20035;-50
2021/09/16 08:21:13;;;;;;;10.27;1.40;;;18.30;99.90;;;;;;5048600;28;20025;-50
2021/09/16 08:23:39;;;;;;;4.13;1.48;;;18.10;99.90;;;;;;5030870;28;20060;-48
2021/09/16 08:26:04;;;;;;;5.68;1.50;;;17.90;99.90;;;;;;5029834;28;20502;-49
2021/09/16 08:28:30;;;;;;;5.28;1.20;;;18.30;99.90;;;;;;5029144;28;20033;-49
2021/09/16 08:30:55;;;;;;;3.25;1.20;;;19.70;99.90;;;;;;5029565;28;20067;-48
2021/09/16 08:33:21;;;;;;;2.60;0.95;;;21.10;99.90;;;;;;5029423;28;20467;-51
2021/09/16 08:35:47;;;;;;;7.05;1.55;;;22.90;99.10;;;;;;5029360;28;20028;-51
2021/09/16 08:38:14;;;;;;;6.68;1.20;;;23.30;96.40;;;;;;5029187;28;20148;-49
2021/09/16 08:40:41;;;;;;;4.15;1.20;;;24.40;94.10;;;;;;5029622;28;20266;-49
2021/09/16 08:43:07;;;;;;;3.00;1.30;;;24.50;93.20;;;;;;5028345;28;20022;-48
2021/09/16 08:45:33;;;;;;;6.97;1.35;;;24.80;91.20;;;;;;5043900;28;20032;-48
2021/09/16 08:47:59;;;;;;;4.20;1.10;;;24.40;90.60;;;;;;5031343;28;20021;-48
2021/09/16 08:50:27;;;;;;;5.07;1.30;;;23.80;91.60;;;;;;5044129;28;20110;-50
2021/09/16 08:52:53;;;;;;;4.70;1.02;;;23.60;92.00;;;;;;5049608;28;20032;-49
2021/09/16 08:55:20;;;;;;;4.32;1.02;;;24.40;91.20;;;;;;5049062;28;20025;-51
2021/09/16 08:57:52;;;;;;;6.10;1.48;;;24.50;90.70;;;;;;5048614;28;20021;-51
2021/09/16 09:00:19;;;;;;;10.32;1.40;;;24.00;91.10;;;;;;5049064;28;20104;-49
2021/09/16 09:02:47;;;;;;;6.82;1.30;;;23.20;92.10;;;;;;5048898;28;20036;-48
2021/09/16 09:05:14;;;;;;;5.20;1.15;;;22.50;93.50;;;;;;5048792;28;20113;-48
2021/09/16 09:07:40;;;;;;;3.53;1.27;;;22.10;94.00;;;;;;5048430;28;20502;-49
2021/09/16 09:10:07;;;;;;;6.18;1.23;;;21.70;94.50;;;;;;5047432;28;20102;-48
2021/09/16 09:12:35;;;;;;;4.75;1.60;;;21.40;95.00;;;;;;5048410;28;20048;-48
2021/09/16 09:15:01;;;;;;;4.38;1.30;;;21.20;95.80;;;;;;5048763;28;20487;-48
2021/09/16 09:17:30;;;;;;;3.17;1.55;;;20.60;97.10;;;;;;5048091;28;20033;-50
2021/09/16 09:20:01;;;;;;;2.53;1.40;;;20.50;98.00;;;;;;5048661;28;20499;-50
2021/09/16 09:22:32;;;;;;;3.72;1.60;;;20.10;98.90;;;;;;5048608;28;20028;-49
2021/09/16 09:25:00;;;;;;;6.07;1.63;;;19.70;99.90;;;;;;5048503;28;20021;-51
2021/09/16 09:27:29;;;;;;;2.78;1.70;;;19.40;99.90;;;;;;5044509;28;20025;-51
2021/09/16 09:30:10;;;;;;;4.18;1.60;;;19.10;99.90;;;;;;5028759;28;20091;-49
2021/09/16 09:33:03;;;;;;;3.97;1.45;;;18.90;99.90;;;;;;5028496;28;20021;-50
2021/09/16 09:35:32;;;;;;;5.63;1.65;;;18.70;99.90;;;;;;5028320;28;20025;-48
2021/09/16 09:38:14;;;;;;;4.15;1.70;;;18.40;99.90;;;;;;5027802;28;20505;-48
2021/09/16 09:40:42;;;;;;;5.13;1.48;;;18.20;99.90;;;;;;5027776;28;20024;-49
2021/09/16 09:43:32;;;;;;;6.32;1.40;;;18.10;99.90;;;;;;5026805;28;20021;-49
2021/09/16 09:46:10;;;;;;;5.88;1.67;;;17.90;99.90;;;;;;5028283;28;20018;-48
2021/09/16 09:48:42;;;;;;;4.05;1.30;;;17.90;99.90;;;;;;5028054;28;20291;-48
2021/09/16 09:51:11;;;;;;;5.20;1.58;;;17.90;99.90;;;;;;5028346;28;20462;-49
2021/09/16 09:53:39;;;;;;;4.72;1.42;;;18.00;99.90;;;;;;5027028;28;20021;-47
2021/09/16 09:56:17;;;;;;;5.22;1.50;;;17.90;99.90;;;;;;5028470;28;20550;-48
2021/09/16 09:58:42;;;;;;;3.70;1.40;;;18.00;99.90;;;;;;5028063;28;20044;-49
2021/09/16 10:01:36;;;;;;;2.53;1.30;;;17.70;99.90;;;;;;5028444;28;20076;-48
2021/09/16 10:04:28;;;;;;;3.80;1.65;;;17.70;99.90;;;;;;5028173;28;20025;-50
2021/09/16 10:06:58;;;;;;;6.32;1.85;;;17.70;99.90;;;;;;5027584;28;20132;-49
2021/09/16 10:09:24;;;;;;;1.75;1.45;;;17.80;99.90;;;;;;5028321;28;20044;-50
2021/09/16 10:11:51;;;;;;;4.22;1.55;;;18.10;99.90;;;;;;5026802;28;20471;-49
2021/09/16 10:14:18;;;;;;;5.72;3.33;;;18.20;99.90;;;;;;5029302;28;20080;-50
2021/09/16 10:16:45;;;;;;;6.68;1.85;;;18.20;99.90;;;;;;5031317;28;20113;-49
2021/09/16 10:19:10;;;;;;;3.58;1.98;;;18.40;99.90;;;;;;5032079;28;20312;-51
2021/09/16 10:21:37;;;;;;;3.95;1.58;;;18.50;99.90;;;;;;5032345;28;20231;-48
2021/09/16 10:24:04;;;;;;;3.65;2.00;;;18.50;99.90;;;;;;5032362;28;20022;-49
2021/09/16 10:26:45;;;;;;;5.70;1.80;;;18.40;99.90;;;;;;5029935;28;20033;-48
2021/09/16 10:29:29;;;;;;;7.05;2.08;;;18.40;99.90;;;;;;5032052;28;20033;-50
2021/09/16 10:32:06;;;;;;;4.95;1.70;;;18.50;99.90;;;;;;5030568;28;20071;-51
2021/09/16 10:34:50;;;;;;;3.45;1.70;;;18.40;99.90;;;;;;5030538;28;20032;-49
2021/09/16 10:37:19;;;;;;;17.80;2.13;;;18.30;99.90;;;;;;5031323;28;20518;-48
2021/09/16 10:39:47;;;;;;;6.55;2.70;;;18.30;99.90;;;;;;5031761;28;20471;-49
2021/09/16 10:42:14;;;;;;;5.93;2.50;;;18.50;99.90;;;;;;5031873;28;20033;-48
2021/09/16 10:44:42;;;;;;;7.72;3.15;;;19.00;99.90;;;;;;5030237;28;20479;-48
2021/09/16 10:47:20;;;;;;;3.47;2.70;;;19.50;99.90;;;;;;5031056;28;20189;-48
2021/09/16 10:49:47;;;;;;;7.88;3.03;;;19.60;99.90;;;;;;5031959;28;20037;-46
2021/09/16 10:52:13;;;;;;;5.60;3.05;;;19.80;99.90;;;;;;5031653;28;20037;-45
2021/09/16 10:54:57;;;;;;;4.68;2.63;;;19.80;99.90;;;;;;5031459;28;20470;-45
2021/09/16 10:57:29;;;;;;;5.13;3.10;;;19.60;99.90;;;;;;5030881;28;20558;-45
2021/09/16 10:59:55;;;;;;;5.40;3.10;;;19.60;99.90;;;;;;5031309;28;20396;-45
2021/09/16 11:02:38;;;;;;;7.55;2.95;;;19.30;99.90;;;;;;5031229;28;20025;-45
2021/09/16 11:05:10;;;;;;;6.22;3.00;;;19.00;99.90;;;;;;5031103;28;20040;-45
2021/09/16 11:07:37;;;;;;;5.78;2.72;;;18.80;99.90;;;;;;5030569;28;20059;-47
2021/09/16 11:10:21;;;;;;;7.50;3.08;;;18.80;99.90;;;;;;5031399;28;20131;-46
2021/09/16 11:12:53;;;;;;;5.78;2.60;;;18.80;99.90;;;;;;5031127;28;20237;-46
2021/09/16 11:15:37;;;;;;;2.88;2.17;;;18.70;99.90;;;;;;5031290;28;20163;-45
2021/09/16 11:18:04;;;;;;;4.60;2.50;;;18.50;99.90;;;;;;5029981;28;20383;-45
2021/09/16 11:20:30;;;;;;;6.70;2.42;;;18.50;99.90;;;;;;5030923;28;20248;-45
2021/09/16 11:22:56;;;;;;;4.05;2.30;;;18.40;99.90;;;;;;5030661;28;20034;-46
2021/09/16 11:25:21;;;;;;;6.07;3.08;;;19.10;99.90;;;;;;5029714;28;20034;-46
2021/09/16 11:27:47;;;;;;;5.20;2.42;;;20.10;99.90;;;;;;5029904;28;20284;-46
2021/09/16 11:30:15;;;;;;;3.45;2.25;;;20.40;99.90;;;;;;5029240;28;20029;-46
2021/09/16 11:32:41;;;;;;;7.18;2.83;;;20.60;99.90;;;;;;5030698;28;20034;-46
2021/09/16 11:35:13;;;;;;;4.55;2.50;;;20.30;99.90;;;;;;5029261;28;20026;-47
2021/09/16 11:37:48;;;;;;;6.55;2.35;;;20.10;99.90;;;;;;5029968;28;20051;-49
2021/09/16 11:40:18;;;;;;;4.05;2.30;;;19.90;99.90;;;;;;5030611;28;20025;-46
2021/09/16 11:42:46;;;;;;;6.75;3.40;;;19.50;99.90;;;;;;5028693;28;20025;-47
2021/09/16 11:45:18;;;;;;;6.10;3.20;;;19.30;99.90;;;;;;5030299;28;20111;-45
2021/09/16 11:47:53;;;;;;;7.25;2.85;;;19.00;99.90;;;;;;5029775;28;20061;-46
2021/09/16 11:50:23;;;;;;;3.88;3.17;;;18.80;99.90;;;;;;5040708;28;20029;-46
2021/09/16 11:52:58;;;;;;;9.90;3.38;;;18.80;99.90;;;;;;5048787;28;20021;-45
2021/09/16 11:55:25;;;;;;;7.47;3.42;;;18.80;99.90;;;;;;5048810;28;20048;-45
2021/09/16 11:57:54;;;;;;;6.22;3.33;;;18.80;99.90;;;;;;5049201;28;20021;-46
2021/09/16 12:00:29;;;;;;;5.18;3.22;;;18.70;99.90;;;;;;5049774;28;20017;-45
2021/09/16 12:02:55;;;;;;;7.32;3.75;;;18.70;99.90;;;;;;5048021;28;20086;-46
2021/09/16 12:05:41;;;;;;;8.77;3.30;;;18.60;99.90;;;;;;5048835;28;20028;-45
2021/09/16 12:08:17;;;;;;;7.00;3.03;;;18.50;99.90;;;;;;5049370;28;20035;-45
2021/09/16 12:10:45;;;;;;;7.38;3.70;;;18.50;99.90;;;;;;5048024;28;20368;-45
2021/09/16 12:13:13;;;;;;;4.82;3.78;;;18.50;99.90;;;;;;5048468;28;20025;-47
2021/09/16 12:15:39;;;;;;;7.90;3.85;;;18.30;99.90;;;;;;5048992;28;20014;-46
2021/09/16 12:18:07;;;;;;;9.85;3.42;;;18.20;99.90;;;;;;5047652;28;20702;-45
2021/09/16 12:20:33;;;;;;;7.85;3.92;;;18.10;99.90;;;;;;5042821;28;20017;-46
2021/09/16 12:22:59;;;;;;;4.13;3.25;;;18.00;99.90;;;;;;5049116;28;20141;-46
2021/09/16 12:25:26;;;;;;;8.77;4.32;;;18.00;99.90;;;;;;5048649;28;20028;-45
2021/09/16 12:28:06;;;;;;;8.77;4.05;;;17.90;99.90;;;;;;5046904;28;20473;-45
2021/09/16 12:30:36;;;;;;;10.45;4.07;;;17.90;99.90;;;;;;5045902;28;20104;-46
2021/09/16 12:33:23;;;;;;;6.50;4.00;;;18.00;99.90;;;;;;5046092;28;20135;-44
2021/09/16 12:36:25;;;;;;;5.70;3.45;;;18.10;99.90;;;;;;5046361;28;20033;-47
2021/09/16 12:38:55;;;;;;;8.55;3.80;;;18.10;99.90;;;;;;5041237;28;20037;-46
2021/09/16 12:41:49;;;;;;;4.78;3.10;;;18.30;99.90;;;;;;5041681;28;20048;-47
2021/09/16 12:44:21;;;;;;;9.77;3.67;;;18.50;99.90;;;;;;5030615;28;20091;-46
2021/09/16 12:46:54;;;;;;;5.90;2.65;;;18.80;99.90;;;;;;5035433;28;20550;-46
2021/09/16 12:49:49;;;;;;;5.53;3.10;;;19.20;99.90;;;;;;5029248;28;20296;-47
2021/09/16 12:52:18;;;;;;;4.10;2.92;;;19.60;99.90;;;;;;5028479;28;20026;-46
2021/09/16 12:54:51;;;;;;;9.68;3.10;;;19.80;99.90;;;;;;5028871;28;20430;-46
2021/09/16 12:57:30;;;;;;;7.35;3.08;;;19.70;99.90;;;;;;5028326;28;20483;-46
2021/09/16 13:00:01;;;;;;;5.97;2.85;;;19.70;99.90;;;;;;5023942;28;20069;-48
2021/09/16 13:02:30;;;;;;;8.52;2.60;;;19.40;99.90;;;;;;5029058;28;20033;-46
2021/09/16 13:05:21;;;;;;;4.03;2.75;;;19.40;99.90;;;;;;5027281;28;20873;-46
2021/09/16 13:08:09;;;;;;;7.93;3.53;;;19.50;99.90;;;;;;5022030;28;20187;-46
2021/09/16 13:10:47;;;;;;;9.88;2.95;;;19.10;99.90;;;;;;5027436;28;20033;-46
2021/09/16 13:13:16;;;;;;;5.28;2.67;;;19.10;99.90;;;;;;5028051;28;20342;-49
2021/09/16 13:15:43;;;;;;;7.72;3.50;;;19.00;99.90;;;;;;5028047;28;20033;-47
2021/09/16 13:18:09;;;;;;;8.05;3.20;;;18.90;99.90;;;;;;5027166;28;20029;-45
2021/09/16 13:20:36;;;;;;;7.53;3.05;;;18.90;99.90;;;;;;5028433;28;20018;-46
2021/09/16 13:23:04;;;;;;;8.88;3.17;;;19.00;99.90;;;;;;5029067;28;20116;-45
2021/09/16 13:25:30;;;;;;;5.82;3.08;;;18.90;99.90;;;;;;5029057;28;20030;-46
2021/09/16 13:27:55;;;;;;;8.57;3.17;;;18.90;99.90;;;;;;5027252;28;20027;-46
2021/09/16 13:30:22;;;;;;;6.13;2.97;;;18.90;99.90;;;;;;5028557;28;20395;-46